createdAt,value
2023-02-22T00:00:50.751Z,632.00
2023-02-22T00:01:51.056Z,631.00
2023-02-22T00:02:50.840Z,629.00
2023-02-22T00:03:50.764Z,629.00
2023-02-22T00:04:50.755Z,630.00
2023-02-22T00:05:50.747Z,628.00
2023-02-22T00:06:50.796Z,630.00
2023-02-22T00:07:50.762Z,633.00
2023-02-22T00:08:50.761Z,631.00
2023-02-22T00:09:50.777Z,632.00
2023-02-22T00:10:50.781Z,630.00
2023-02-22T00:11:50.820Z,627.00
2023-02-22T00:12:50.762Z,626.00
2023-02-22T00:13:50.785Z,626.00
2023-02-22T00:14:50.794Z,625.00
2023-02-22T00:15:50.790Z,624.00
2023-02-22T00:16:50.839Z,624.00
2023-02-22T00:17:50.812Z,625.00
2023-02-22T00:18:50.820Z,624.00
2023-02-22T00:19:50.816Z,626.00
2023-02-22T00:20:50.796Z,624.00
2023-02-22T00:21:50.805Z,625.00
2023-02-22T00:22:50.824Z,628.00
2023-02-22T00:23:50.813Z,627.00
2023-02-22T00:24:50.861Z,628.00
2023-02-22T00:25:50.845Z,628.00
2023-02-22T00:26:50.849Z,629.00
2023-02-22T00:27:50.849Z,631.00
2023-02-22T00:28:50.888Z,633.00
2023-02-22T00:29:50.858Z,632.00
2023-02-22T00:30:50.891Z,631.00
2023-02-22T00:31:51.013Z,633.00
2023-02-22T00:32:50.859Z,635.00
2023-02-22T00:33:50.878Z,635.00
2023-02-22T00:34:50.890Z,631.00
2023-02-22T00:35:50.886Z,629.00
2023-02-22T00:36:50.897Z,631.00
2023-02-22T00:37:50.916Z,631.00
2023-02-22T00:38:50.918Z,628.00
2023-02-22T00:39:50.931Z,631.00
2023-02-22T00:40:50.901Z,627.00
2023-02-22T00:41:50.947Z,627.00
2023-02-22T00:42:50.897Z,629.00
2023-02-22T00:43:50.910Z,627.00
2023-02-22T00:44:50.924Z,628.00
2023-02-22T00:45:50.996Z,629.00
2023-02-22T00:46:50.940Z,630.00
2023-02-22T00:47:50.924Z,635.00
2023-02-22T00:48:50.931Z,635.00
2023-02-22T00:49:50.942Z,633.00
2023-02-22T00:50:50.972Z,631.00
2023-02-22T00:51:50.973Z,632.00
2023-02-22T00:52:50.982Z,631.00
2023-02-22T00:53:50.994Z,631.00
2023-02-22T00:54:50.974Z,632.00
2023-02-22T00:55:51.037Z,634.00
2023-02-22T00:56:51.028Z,632.00
2023-02-22T00:57:51.017Z,632.00
2023-02-22T00:58:51.035Z,634.00
2023-02-22T00:59:51.052Z,633.00
2023-02-22T01:00:51.138Z,633.00
2023-02-22T01:01:51.054Z,631.00
2023-02-22T01:02:51.093Z,629.00
2023-02-22T01:03:51.045Z,627.00
2023-02-22T01:04:51.092Z,628.00
2023-02-22T01:05:51.047Z,626.00
2023-02-22T01:06:51.078Z,626.00
2023-02-22T01:07:51.097Z,628.00
2023-02-22T01:08:51.064Z,630.00
2023-02-22T01:09:51.082Z,630.00
2023-02-22T01:10:51.106Z,628.00
2023-02-22T01:11:51.128Z,626.00
2023-02-22T01:12:51.142Z,627.00
2023-02-22T01:13:51.154Z,628.00
2023-02-22T01:14:51.151Z,628.00
2023-02-22T01:15:51.180Z,634.00
2023-02-22T01:16:51.277Z,636.00
2023-02-22T01:17:51.170Z,633.00
2023-02-22T01:18:51.135Z,631.00
2023-02-22T01:19:53.685Z,632.00
2023-02-22T01:20:51.151Z,634.00
2023-02-22T01:21:51.153Z,635.00
2023-02-22T01:22:51.166Z,638.00
2023-02-22T01:23:51.147Z,637.00
2023-02-22T01:24:51.106Z,638.00
2023-02-22T01:25:51.112Z,638.00
2023-02-22T01:26:51.084Z,638.00
2023-02-22T01:27:51.128Z,638.00
2023-02-22T01:28:51.111Z,638.00
2023-02-22T01:29:51.114Z,636.00
2023-02-22T01:30:51.142Z,632.00
2023-02-22T01:31:51.105Z,633.00
2023-02-22T01:32:51.114Z,634.00
2023-02-22T01:33:51.069Z,634.00
2023-02-22T01:34:51.042Z,637.00
2023-02-22T01:35:51.073Z,637.00
2023-02-22T01:36:51.028Z,635.00
2023-02-22T01:37:51.070Z,636.00
2023-02-22T01:38:51.028Z,632.00
2023-02-22T01:39:51.036Z,630.00
2023-02-22T01:40:51.025Z,629.00
2023-02-22T01:41:50.985Z,627.00
2023-02-22T01:42:51.009Z,628.00
2023-02-22T01:43:51.000Z,629.00
2023-02-22T01:44:51.012Z,629.00
2023-02-22T01:45:50.996Z,627.00
2023-02-22T01:46:50.972Z,627.00
2023-02-22T01:47:50.977Z,627.00
2023-02-22T01:48:50.975Z,629.00
2023-02-22T01:49:50.995Z,630.00
2023-02-22T01:50:50.949Z,629.00
2023-02-22T01:51:50.928Z,628.00
2023-02-22T01:52:50.928Z,629.00
2023-02-22T01:53:50.935Z,631.00
2023-02-22T01:54:50.913Z,630.00
2023-02-22T01:55:50.889Z,630.00
2023-02-22T01:56:50.884Z,629.00
2023-02-22T01:57:50.879Z,630.00
2023-02-22T01:58:50.892Z,628.00
2023-02-22T01:59:50.898Z,628.00
2023-02-22T02:00:50.919Z,627.00
2023-02-22T02:01:50.864Z,625.00
2023-02-22T02:02:50.865Z,626.00
2023-02-22T02:03:50.912Z,627.00
2023-02-22T02:04:50.863Z,626.00
2023-02-22T02:05:50.844Z,628.00
2023-02-22T02:06:50.837Z,631.00
2023-02-22T02:07:50.813Z,632.00
2023-02-22T02:08:50.853Z,629.00
2023-02-22T02:09:50.818Z,627.00
2023-02-22T02:10:50.831Z,630.00
2023-02-22T02:11:50.808Z,630.00
2023-02-22T02:12:50.836Z,627.00
2023-02-22T02:13:50.836Z,630.00
2023-02-22T02:14:50.831Z,631.00
2023-02-22T02:15:50.791Z,629.00
2023-02-22T02:16:50.810Z,627.00
2023-02-22T02:17:50.754Z,626.00
2023-02-22T02:18:50.763Z,628.00
2023-02-22T02:19:50.736Z,629.00
2023-02-22T02:20:50.734Z,627.00
2023-02-22T02:21:50.735Z,627.00
2023-02-22T02:22:50.758Z,627.00
2023-02-22T02:23:50.706Z,626.00
2023-02-22T02:24:50.720Z,626.00
2023-02-22T02:25:50.687Z,626.00
2023-02-22T02:26:50.692Z,627.00
2023-02-22T02:27:50.689Z,625.00
2023-02-22T02:28:50.677Z,624.00
2023-02-22T02:29:50.702Z,624.00
2023-02-22T02:30:50.673Z,625.00
2023-02-22T02:31:50.782Z,625.00
2023-02-22T02:32:50.654Z,625.00
2023-02-22T02:33:50.666Z,625.00
2023-02-22T02:34:50.660Z,626.00
2023-02-22T02:35:50.641Z,626.00
2023-02-22T02:36:50.639Z,626.00
2023-02-22T02:37:50.606Z,624.00
2023-02-22T02:38:50.636Z,624.00
2023-02-22T02:39:50.620Z,626.00
2023-02-22T02:40:50.627Z,627.00
2023-02-22T02:41:50.623Z,630.00
2023-02-22T02:42:50.574Z,628.00
2023-02-22T02:43:50.653Z,628.00
2023-02-22T02:44:50.601Z,626.00
2023-02-22T02:45:50.616Z,629.00
2023-02-22T02:46:50.603Z,629.00
2023-02-22T02:47:50.570Z,631.00
2023-02-22T02:48:50.555Z,632.00
2023-02-22T02:49:50.565Z,632.00
2023-02-22T02:50:50.541Z,628.00
2023-02-22T02:51:50.557Z,627.00
2023-02-22T02:52:50.535Z,628.00
2023-02-22T02:53:50.556Z,628.00
2023-02-22T02:54:50.512Z,629.00
2023-02-22T02:55:50.507Z,631.00
2023-02-22T02:56:50.495Z,632.00
2023-02-22T02:57:50.526Z,631.00
2023-02-22T02:58:50.486Z,633.00
2023-02-22T02:59:50.496Z,631.00
2023-02-22T03:00:50.514Z,633.00
2023-02-22T03:01:50.517Z,633.00
2023-02-22T03:02:50.451Z,634.00
2023-02-22T03:03:50.463Z,631.00
2023-02-22T03:04:50.479Z,631.00
2023-02-22T03:05:50.440Z,628.00
2023-02-22T03:06:50.462Z,630.00
2023-02-22T03:07:50.453Z,629.00
2023-02-22T03:08:50.441Z,629.00
2023-02-22T03:09:50.466Z,630.00
2023-02-22T03:10:50.415Z,629.00
2023-02-22T03:11:50.415Z,632.00
2023-02-22T03:12:50.371Z,634.00
2023-02-22T03:13:50.394Z,637.00
2023-02-22T03:14:50.391Z,635.00
2023-02-22T03:15:50.369Z,634.00
2023-02-22T03:16:50.382Z,632.00
2023-02-22T03:17:50.385Z,629.00
2023-02-22T03:18:50.353Z,626.00
2023-02-22T03:19:50.372Z,624.00
2023-02-22T03:20:50.366Z,627.00
2023-02-22T03:21:50.402Z,627.00
2023-02-22T03:22:50.441Z,630.00
2023-02-22T03:23:50.534Z,629.00
2023-02-22T03:24:50.567Z,630.00
2023-02-22T03:25:50.618Z,630.00
2023-02-22T03:26:50.627Z,629.00
2023-02-22T03:27:50.693Z,631.00
2023-02-22T03:28:50.697Z,629.00
2023-02-22T03:29:50.752Z,627.00
2023-02-22T03:30:50.769Z,625.00
2023-02-22T03:31:50.807Z,625.00
2023-02-22T03:32:50.846Z,624.00
2023-02-22T03:33:50.859Z,625.00
2023-02-22T03:34:50.926Z,626.00
2023-02-22T03:35:50.884Z,626.00
2023-02-22T03:36:50.964Z,627.00
2023-02-22T03:37:50.992Z,628.00
2023-02-22T03:38:51.035Z,627.00
2023-02-22T03:39:51.033Z,628.00
2023-02-22T03:40:51.047Z,625.00
2023-02-22T03:41:51.055Z,624.00
2023-02-22T03:42:51.079Z,624.00
2023-02-22T03:43:51.112Z,625.00
2023-02-22T03:44:51.096Z,624.00
2023-02-22T03:45:51.111Z,624.00
2023-02-22T03:46:51.128Z,622.00
2023-02-22T03:47:51.124Z,621.00
2023-02-22T03:48:51.141Z,619.00
2023-02-22T03:49:51.178Z,620.00
2023-02-22T03:50:51.213Z,619.00
2023-02-22T03:51:51.196Z,623.00
2023-02-22T03:52:51.224Z,621.00
2023-02-22T03:53:51.226Z,619.00
2023-02-22T03:54:51.248Z,617.00
2023-02-22T03:55:51.289Z,620.00
2023-02-22T03:56:51.293Z,620.00
2023-02-22T03:57:51.296Z,620.00
2023-02-22T03:58:51.310Z,622.00
2023-02-22T03:59:51.313Z,620.00
2023-02-22T04:00:51.337Z,619.00
2023-02-22T04:01:51.373Z,621.00
2023-02-22T04:02:51.414Z,621.00
2023-02-22T04:03:51.397Z,619.00
2023-02-22T04:04:51.420Z,621.00
2023-02-22T04:05:51.420Z,618.00
2023-02-22T04:06:51.424Z,616.00
2023-02-22T04:07:51.428Z,616.00
2023-02-22T04:08:51.475Z,616.00
2023-02-22T04:09:51.493Z,616.00
2023-02-22T04:10:51.539Z,615.00
2023-02-22T04:11:51.548Z,615.00
2023-02-22T04:12:51.589Z,616.00
2023-02-22T04:13:51.583Z,614.00
2023-02-22T04:14:51.635Z,614.00
2023-02-22T04:15:51.660Z,615.00
2023-02-22T04:16:51.681Z,613.00
2023-02-22T04:17:51.669Z,615.00
2023-02-22T04:18:51.684Z,617.00
2023-02-22T04:19:51.761Z,618.00
2023-02-22T04:20:51.756Z,617.00
2023-02-22T04:21:51.784Z,617.00
2023-02-22T04:22:51.811Z,616.00
2023-02-22T04:23:51.837Z,618.00
2023-02-22T04:24:51.842Z,618.00
2023-02-22T04:25:51.891Z,617.00
2023-02-22T04:26:51.929Z,618.00
2023-02-22T04:27:51.987Z,618.00
2023-02-22T04:28:52.515Z,616.00
2023-02-22T04:29:52.040Z,618.00
2023-02-22T04:30:52.087Z,620.00
2023-02-22T04:31:52.147Z,620.00
2023-02-22T04:32:52.141Z,622.00
2023-02-22T04:33:52.183Z,621.00
2023-02-22T04:34:52.215Z,620.00
2023-02-22T04:35:52.254Z,620.00
2023-02-22T04:36:52.274Z,619.00
2023-02-22T04:37:52.292Z,621.00
2023-02-22T04:38:52.353Z,622.00
2023-02-22T04:39:52.450Z,621.00
2023-02-22T04:40:52.428Z,622.00
2023-02-22T04:41:52.452Z,622.00
2023-02-22T04:42:52.493Z,622.00
2023-02-22T04:43:52.562Z,624.00
2023-02-22T04:44:52.613Z,625.00
2023-02-22T04:45:52.651Z,624.00
2023-02-22T04:46:52.690Z,623.00
2023-02-22T04:47:52.691Z,624.00
2023-02-22T04:48:52.731Z,626.00
2023-02-22T04:49:52.779Z,628.00
2023-02-22T04:50:52.824Z,627.00
2023-02-22T04:51:52.870Z,629.00
2023-02-22T04:52:52.898Z,631.00
2023-02-22T04:53:52.949Z,633.00
2023-02-22T04:54:53.002Z,634.00
2023-02-22T04:55:53.015Z,633.00
2023-02-22T04:56:53.042Z,632.00
2023-02-22T04:57:53.096Z,631.00
2023-02-22T04:58:53.120Z,630.00
2023-02-22T04:59:53.190Z,629.00
2023-02-22T05:00:53.220Z,630.00
2023-02-22T05:01:53.231Z,628.00
2023-02-22T05:02:53.377Z,630.00
2023-02-22T05:03:53.316Z,630.00
2023-02-22T05:04:53.434Z,629.00
2023-02-22T05:05:53.384Z,629.00
2023-02-22T05:06:54.981Z,630.00
2023-02-22T05:07:53.465Z,629.00
2023-02-22T05:08:53.505Z,626.00
2023-02-22T05:09:53.584Z,626.00
2023-02-22T05:10:53.568Z,626.00
2023-02-22T05:11:53.626Z,626.00
2023-02-22T05:12:53.646Z,627.00
2023-02-22T05:13:53.697Z,628.00
2023-02-22T05:14:53.763Z,627.00
2023-02-22T05:15:53.793Z,627.00
2023-02-22T05:16:53.811Z,625.00
2023-02-22T05:17:53.849Z,626.00
2023-02-22T05:18:53.864Z,627.00
2023-02-22T05:19:53.918Z,624.00
2023-02-22T05:20:53.939Z,624.00
2023-02-22T05:21:54.014Z,626.00
2023-02-22T05:22:55.048Z,626.00
2023-02-22T05:23:54.053Z,624.00
2023-02-22T05:24:54.131Z,623.00
2023-02-22T05:25:54.159Z,624.00
2023-02-22T05:26:54.195Z,621.00
2023-02-22T05:27:54.225Z,619.00
2023-02-22T05:28:54.265Z,622.00
2023-02-22T05:29:54.297Z,622.00
2023-02-22T05:30:54.355Z,622.00
2023-02-22T05:31:54.470Z,622.00
2023-02-22T05:32:54.431Z,622.00
2023-02-22T05:33:54.478Z,621.00
2023-02-22T05:34:54.509Z,621.00
2023-02-22T05:35:54.549Z,621.00
2023-02-22T05:36:54.581Z,622.00
2023-02-22T05:37:54.613Z,623.00
2023-02-22T05:38:54.662Z,624.00
2023-02-22T05:39:54.706Z,622.00
2023-02-22T05:40:54.725Z,624.00
2023-02-22T05:41:54.781Z,626.00
2023-02-22T05:42:54.792Z,624.00
2023-02-22T05:43:54.874Z,625.00
2023-02-22T05:44:54.891Z,624.00
2023-02-22T05:45:54.917Z,624.00
2023-02-22T05:46:54.970Z,625.00
2023-02-22T05:47:54.980Z,625.00
2023-02-22T05:48:55.013Z,622.00
2023-02-22T05:49:55.069Z,622.00
2023-02-22T05:50:55.211Z,623.00
2023-02-22T05:51:55.154Z,621.00
2023-02-22T05:52:55.156Z,621.00
2023-02-22T05:53:55.201Z,623.00
2023-02-22T05:54:55.261Z,626.00
2023-02-22T05:55:55.264Z,627.00
2023-02-22T05:56:55.302Z,630.00
2023-02-22T05:57:55.330Z,630.00
2023-02-22T05:58:55.390Z,632.00
2023-02-22T05:59:55.408Z,631.00
2023-02-22T06:01:03.415Z,631.00
2023-02-22T06:01:55.495Z,630.00
2023-02-22T06:02:55.449Z,631.00
2023-02-22T06:03:55.411Z,631.00
2023-02-22T06:04:55.418Z,632.00
2023-02-22T06:05:55.514Z,633.00
2023-02-22T06:06:55.406Z,635.00
2023-02-22T06:07:55.420Z,633.00
2023-02-22T06:08:55.415Z,634.00
2023-02-22T06:09:55.458Z,634.00
2023-02-22T06:10:55.497Z,633.00
2023-02-22T06:11:55.512Z,634.00
2023-02-22T06:12:55.586Z,635.00
2023-02-22T06:13:55.600Z,634.00
2023-02-22T06:14:55.667Z,633.00
2023-02-22T06:15:55.693Z,636.00
2023-02-22T06:16:55.710Z,636.00
2023-02-22T06:17:55.741Z,636.00
2023-02-22T06:18:55.785Z,636.00
2023-02-22T06:19:55.814Z,637.00
2023-02-22T06:26:55.990Z,639.00
2023-02-22T06:27:55.947Z,639.00
2023-02-22T06:28:56.040Z,635.00
2023-02-22T06:29:56.012Z,628.00
2023-02-22T06:30:56.049Z,625.00
2023-02-22T06:31:56.150Z,651.00
2023-02-22T06:32:56.093Z,664.00
2023-02-22T06:33:56.185Z,741.00
2023-02-22T06:34:56.585Z,727.00
2023-02-22T06:35:56.217Z,726.00
2023-02-22T06:36:56.714Z,739.00
2023-02-22T06:37:56.231Z,748.00
2023-02-22T06:38:56.275Z,760.00
2023-02-22T06:39:57.986Z,776.00
2023-02-22T06:40:56.354Z,816.00
2023-02-22T06:41:56.421Z,872.00
2023-02-22T06:42:56.367Z,1012.00
2023-02-22T06:43:56.387Z,1119.00
2023-02-22T06:44:56.577Z,979.00
2023-02-22T06:46:03.492Z,1050.00
2023-02-22T06:46:56.463Z,1524.00
2023-02-22T06:47:56.440Z,1361.00
2023-02-22T06:48:57.554Z,1546.00
2023-02-22T07:22:56.173Z,1739.00
2023-02-22T07:23:56.202Z,1732.00
2023-02-22T07:24:56.192Z,1943.00
2023-02-22T07:26:56.270Z,1719.00
2023-02-22T07:27:56.336Z,1747.00
2023-02-22T07:28:56.371Z,1942.00
2023-02-22T07:29:56.420Z,1802.00
2023-02-22T07:30:56.621Z,2081.00
2023-02-22T07:31:56.365Z,1894.00
2023-02-22T07:37:56.698Z,1971.00
2023-02-22T07:46:56.888Z,1411.00
2023-02-22T07:47:56.897Z,1601.00
2023-02-22T07:48:56.936Z,1454.00
2023-02-22T07:49:56.912Z,1311.00
2023-02-22T07:50:56.943Z,1310.00
2023-02-22T07:51:56.958Z,1338.00
2023-02-22T07:52:56.970Z,1359.00
2023-02-22T07:53:57.068Z,1565.00
2023-02-22T07:54:57.085Z,1753.00
2023-02-22T07:55:57.095Z,2396.00
2023-02-22T07:56:57.099Z,1599.00
2023-02-22T07:57:57.115Z,1617.00
2023-02-22T07:58:57.133Z,1486.00
2023-02-22T07:59:57.163Z,1601.00
2023-02-22T08:00:57.224Z,1555.00
2023-02-22T08:01:57.279Z,1555.00
2023-02-22T08:02:57.349Z,1568.00
2023-02-22T08:04:57.451Z,1630.00
2023-02-22T08:05:57.537Z,1653.00
2023-02-22T08:06:57.604Z,1794.00
2023-02-22T08:07:57.693Z,1690.00
2023-02-22T08:08:57.708Z,1726.00
2023-02-22T08:09:57.748Z,1716.00
2023-02-22T08:10:57.818Z,1684.00
2023-02-22T08:11:57.869Z,1769.00
2023-02-22T08:12:57.935Z,1744.00
2023-02-22T08:13:57.932Z,1741.00
2023-02-22T08:14:57.984Z,1755.00
2023-02-22T08:15:58.035Z,1763.00
2023-02-22T08:16:58.112Z,1838.00
2023-02-22T08:17:58.150Z,1790.00
2023-02-22T08:18:58.172Z,1796.00
2023-02-22T08:19:58.182Z,1817.00
2023-02-22T08:20:58.290Z,1824.00
2023-02-22T08:21:58.309Z,1829.00
2023-02-22T08:22:58.344Z,1834.00
2023-02-22T08:23:58.340Z,1846.00
2023-02-22T08:24:58.399Z,1846.00
2023-02-22T08:25:58.470Z,1926.00
2023-02-22T08:26:58.492Z,1891.00
2023-02-22T08:27:58.532Z,1882.00
2023-02-22T08:28:58.541Z,1877.00
2023-02-22T08:29:58.556Z,1879.00
2023-02-22T08:30:58.585Z,1883.00
2023-02-22T08:31:58.822Z,1874.00
2023-02-22T08:33:58.702Z,1050.00
2023-02-22T08:34:58.749Z,870.00
2023-02-22T08:35:58.762Z,819.00
2023-02-22T08:36:58.806Z,780.00
2023-02-22T08:37:58.845Z,777.00
2023-02-22T08:38:58.801Z,833.00
2023-02-22T08:39:58.822Z,743.00
2023-02-22T08:40:59.170Z,852.00
2023-02-22T08:41:58.869Z,1064.00
2023-02-22T08:42:58.892Z,924.00
2023-02-22T08:46:59.118Z,948.00
2023-02-22T09:24:00.032Z,876.00
2023-02-22T09:26:02.489Z,875.00
2023-02-22T09:36:00.401Z,894.00
2023-02-22T09:37:00.676Z,896.00
2023-02-22T09:38:00.403Z,893.00
2023-02-22T09:39:00.454Z,932.00
2023-02-22T09:40:00.483Z,949.00
2023-02-22T09:41:00.470Z,952.00
2023-02-22T09:42:00.467Z,956.00
2023-02-22T09:43:00.492Z,962.00
2023-02-22T09:44:00.581Z,959.00
2023-02-22T09:48:08.182Z,956.00
2023-02-22T09:49:01.584Z,888.00
2023-02-22T09:50:00.562Z,918.00
2023-02-22T09:51:00.573Z,828.00
2023-02-22T09:52:00.700Z,796.00
2023-02-22T09:53:00.641Z,789.00
2023-02-22T09:54:00.548Z,781.00
2023-02-22T09:55:00.543Z,783.00
2023-02-22T09:56:00.516Z,689.00
2023-02-22T09:57:00.514Z,674.00
2023-02-22T09:58:00.498Z,665.00
2023-02-22T09:59:00.507Z,658.00
2023-02-22T10:00:00.497Z,643.00
2023-02-22T10:01:00.490Z,632.00
2023-02-22T10:03:00.578Z,617.00
2023-02-22T10:04:00.509Z,613.00
2023-02-22T10:05:00.516Z,609.00
2023-02-22T10:06:00.491Z,605.00
2023-02-22T10:07:00.872Z,602.00
2023-02-22T10:08:00.579Z,601.00
2023-02-22T10:09:00.624Z,598.00
2023-02-22T10:10:00.701Z,598.00
2023-02-22T10:11:00.724Z,596.00
2023-02-22T10:12:01.183Z,592.00
2023-02-22T10:13:00.834Z,590.00
2023-02-22T10:22:01.250Z,591.00
2023-02-22T10:25:01.135Z,589.00
2023-02-22T10:26:01.108Z,591.00
2023-02-22T10:28:01.138Z,587.00
2023-02-22T10:29:01.172Z,587.00
2023-02-22T10:30:02.700Z,585.00
2023-02-22T10:32:01.298Z,586.00
2023-02-22T10:33:01.180Z,584.00
2023-02-22T10:34:01.174Z,591.00
2023-02-22T10:35:01.140Z,622.00
2023-02-22T10:36:01.146Z,638.00
2023-02-22T10:37:01.150Z,630.00
2023-02-22T10:38:01.173Z,634.00
2023-02-22T10:39:01.098Z,635.00
2023-02-22T10:40:01.106Z,638.00
2023-02-22T10:41:01.124Z,659.00
2023-02-22T10:42:01.218Z,663.00
2023-02-22T10:43:01.092Z,660.00
2023-02-22T10:44:01.090Z,771.00
2023-02-22T10:45:01.100Z,806.00
2023-02-22T10:46:01.208Z,819.00
2023-02-22T10:47:01.042Z,1005.00
2023-02-22T10:48:01.245Z,1324.00
2023-02-22T10:49:01.073Z,972.00
2023-02-22T10:50:01.032Z,1104.00
2023-02-22T10:51:01.048Z,1045.00
2023-02-22T10:53:01.035Z,1119.00
2023-02-22T10:54:01.058Z,1136.00
2023-02-22T10:55:14.323Z,1152.00
2023-02-22T10:56:02.003Z,1170.00
2023-02-22T10:57:00.987Z,1270.00
2023-02-22T10:58:01.000Z,1267.00
2023-02-22T11:00:01.005Z,1287.00
2023-02-22T11:01:00.960Z,1405.00
2023-02-22T11:03:01.006Z,1275.00
2023-02-22T11:04:01.014Z,1304.00
2023-02-22T11:05:00.996Z,1336.00
2023-02-22T11:06:00.955Z,1337.00
2023-02-22T11:08:00.921Z,1480.00
2023-02-22T11:09:00.888Z,1454.00
2023-02-22T11:10:00.906Z,1460.00
2023-02-22T11:11:00.914Z,1473.00
2023-02-22T11:12:01.219Z,1467.00
2023-02-22T11:13:01.042Z,1464.00
2023-02-22T11:14:00.993Z,1496.00
2023-02-22T11:15:01.081Z,1675.00
2023-02-22T11:16:01.114Z,1496.00
2023-02-22T11:17:01.236Z,1519.00
2023-02-22T11:18:01.222Z,1516.00
2023-02-22T11:19:01.275Z,1537.00
2023-02-22T11:21:02.422Z,1601.00
2023-02-22T11:22:01.457Z,1621.00
2023-02-22T11:23:01.468Z,1719.00
2023-02-22T11:24:01.494Z,1613.00
2023-02-22T11:25:01.624Z,1659.00
2023-02-22T11:26:01.558Z,2268.00
2023-02-22T11:27:01.946Z,1839.00
2023-02-22T11:28:01.636Z,1666.00
2023-02-22T11:29:01.790Z,1598.00
2023-02-22T11:31:01.918Z,1701.00
2023-02-22T11:32:01.780Z,1672.00
2023-02-22T11:33:02.269Z,1665.00
2023-02-22T11:34:01.811Z,1712.00
2023-02-22T11:35:09.023Z,1797.00
2023-02-22T11:36:02.837Z,1723.00
2023-02-22T11:37:01.795Z,1446.00
2023-02-22T11:38:02.236Z,1413.00
2023-02-22T11:39:01.781Z,1330.00
2023-02-22T11:40:01.778Z,1299.00
2023-02-22T11:41:01.760Z,1551.00
2023-02-22T11:42:02.268Z,1304.00
2023-02-22T11:43:01.734Z,1415.00
2023-02-22T11:44:01.817Z,1312.00
2023-02-22T11:45:01.773Z,1278.00
2023-02-22T11:46:02.283Z,1273.00
2023-02-22T11:47:01.723Z,1273.00
2023-02-22T11:48:01.735Z,1293.00
2023-02-22T11:49:01.710Z,1289.00
2023-02-22T11:50:01.732Z,1282.00
2023-02-22T11:51:01.671Z,1273.00
2023-02-22T11:52:01.718Z,1257.00
2023-02-22T11:53:01.781Z,1254.00
2023-02-22T11:54:01.699Z,1250.00
2023-02-22T11:55:01.739Z,1245.00
2023-02-22T11:56:01.755Z,1242.00
2023-02-22T11:57:01.890Z,1241.00
2023-02-22T11:58:01.916Z,1237.00
2023-02-22T11:59:01.937Z,1236.00
2023-02-22T12:00:02.044Z,1223.00
2023-02-22T12:01:02.051Z,1215.00
2023-02-22T12:02:02.133Z,1209.00
2023-02-22T12:03:02.222Z,1209.00
2023-02-22T12:04:02.374Z,1209.00
2023-02-22T12:05:02.375Z,1207.00
2023-02-22T12:06:02.385Z,1202.00
2023-02-22T12:07:02.402Z,1172.00
2023-02-22T12:08:10.705Z,1163.00
2023-02-22T12:09:03.482Z,1165.00
2023-02-22T12:10:02.445Z,1160.00
2023-02-22T12:11:02.490Z,1150.00
2023-02-22T12:12:02.429Z,1115.00
2023-02-22T12:13:02.457Z,1119.00
2023-02-22T12:14:02.465Z,1122.00
2023-02-22T12:15:02.422Z,1121.00
2023-02-22T12:16:02.475Z,1121.00
2023-02-22T12:17:02.444Z,1118.00
2023-02-22T12:18:02.486Z,1114.00
2023-02-22T12:19:02.553Z,1112.00
2023-02-22T12:20:02.615Z,1106.00
2023-02-22T12:21:02.629Z,1091.00
2023-02-22T12:22:02.722Z,993.00
2023-02-22T12:24:02.756Z,1021.00
2023-02-22T12:25:10.315Z,1065.00
2023-02-22T12:26:03.741Z,932.00
2023-02-22T12:27:05.038Z,911.00
2023-02-22T12:28:07.694Z,903.00
2023-02-22T12:29:03.707Z,898.00
2023-02-22T12:30:02.733Z,942.00
2023-02-22T12:32:02.709Z,864.00
2023-02-22T12:33:04.730Z,883.00
2023-02-22T12:34:02.776Z,889.00
2023-02-22T12:35:02.689Z,865.00
2023-02-22T12:37:02.666Z,830.00
2023-02-22T12:38:02.806Z,819.00
2023-02-22T12:39:04.048Z,809.00
2023-02-22T12:40:02.656Z,806.00
2023-02-22T12:41:02.635Z,803.00
2023-02-22T12:42:02.672Z,806.00
2023-02-22T12:43:02.648Z,808.00
2023-02-22T12:44:02.643Z,810.00
2023-02-22T12:45:03.334Z,809.00
2023-02-22T12:46:02.719Z,807.00
2023-02-22T12:47:02.667Z,806.00
2023-02-22T12:49:02.607Z,795.00
2023-02-22T12:50:02.586Z,789.00
2023-02-22T12:51:02.603Z,788.00
2023-02-22T12:52:12.436Z,788.00
2023-02-22T12:54:02.545Z,788.00
2023-02-22T12:55:02.560Z,787.00
2023-02-22T12:56:02.558Z,787.00
2023-02-22T13:21:02.384Z,700.00
2023-02-22T13:24:02.383Z,678.00
2023-02-22T13:25:02.398Z,670.00
2023-02-22T13:26:02.482Z,667.00
2023-02-22T13:27:02.512Z,670.00
2023-02-22T13:28:02.580Z,668.00
2023-02-22T13:29:02.645Z,668.00
2023-02-22T13:30:02.674Z,669.00
2023-02-22T13:31:02.784Z,666.00
2023-02-22T13:33:02.894Z,661.00
2023-02-22T13:34:02.983Z,659.00
2023-02-22T13:35:03.022Z,654.00
2023-02-22T13:36:03.037Z,652.00
2023-02-22T13:37:03.089Z,651.00
2023-02-22T13:38:03.150Z,654.00
2023-02-22T13:39:03.176Z,656.00
2023-02-22T13:40:03.219Z,657.00
2023-02-22T13:41:03.226Z,658.00
2023-02-22T13:42:03.257Z,658.00
2023-02-22T13:43:03.260Z,660.00
2023-02-22T13:45:03.333Z,656.00
2023-02-22T13:46:03.371Z,656.00
2023-02-22T13:47:03.383Z,653.00
2023-02-22T13:48:03.364Z,651.00
2023-02-22T13:49:03.383Z,648.00
2023-02-22T13:50:03.400Z,647.00
2023-02-22T13:51:03.433Z,646.00
2023-02-22T14:18:03.800Z,639.00
2023-02-22T14:19:03.576Z,636.00
2023-02-22T14:20:03.572Z,634.00
2023-02-22T14:21:03.597Z,633.00
2023-02-22T14:22:03.592Z,633.00
2023-02-22T14:23:03.690Z,631.00
2023-02-22T14:24:03.601Z,630.00
2023-02-22T14:25:03.617Z,631.00
2023-02-22T14:26:04.305Z,631.00
2023-02-22T14:27:03.636Z,630.00
2023-02-22T14:28:03.582Z,630.00
2023-02-22T14:29:03.645Z,632.00
2023-02-22T14:30:03.613Z,630.00
2023-02-22T14:31:03.747Z,629.00
2023-02-22T14:32:03.715Z,629.00
2023-02-22T14:33:03.658Z,628.00
2023-02-22T14:34:03.658Z,628.00
2023-02-22T14:35:04.320Z,629.00
2023-02-22T14:36:03.616Z,630.00
2023-02-22T14:37:03.672Z,630.00
2023-02-22T14:38:03.824Z,628.00
2023-02-22T14:39:03.642Z,626.00
2023-02-22T14:40:03.654Z,626.00
2023-02-22T14:41:03.650Z,627.00
2023-02-22T14:42:03.671Z,626.00
2023-02-22T14:43:03.738Z,625.00
2023-02-22T14:44:03.691Z,628.00
2023-02-22T16:27:04.321Z,598.00
2023-02-22T16:28:04.356Z,599.00
2023-02-22T16:29:04.388Z,599.00
2023-02-22T16:30:10.012Z,599.00
2023-02-22T16:31:05.529Z,601.00
2023-02-22T16:32:04.508Z,601.00
2023-02-22T16:33:04.389Z,601.00
2023-02-22T16:34:04.358Z,598.00
2023-02-22T16:35:04.373Z,598.00
2023-02-22T16:36:04.362Z,601.00
2023-02-22T16:37:04.342Z,603.00
2023-02-22T16:38:04.328Z,603.00
2023-02-22T16:40:04.322Z,597.00
2023-02-22T17:29:05.410Z,595.00
2023-02-22T17:30:05.482Z,596.00
2023-02-22T17:31:05.517Z,598.00
2023-02-22T17:33:05.586Z,601.00
2023-02-22T17:34:05.637Z,598.00
2023-02-22T17:35:05.675Z,599.00
2023-02-22T17:36:05.703Z,604.00
2023-02-22T17:37:05.748Z,603.00
2023-02-22T17:38:05.796Z,601.00
2023-02-22T17:39:05.841Z,602.00
2023-02-22T17:41:05.937Z,599.00
2023-02-22T17:42:06.027Z,599.00
2023-02-22T17:43:06.029Z,598.00
2023-02-22T17:44:06.092Z,601.00
2023-02-22T17:53:06.508Z,602.00
2023-02-22T17:54:06.532Z,605.00
2023-02-22T17:55:06.571Z,605.00
2023-02-22T18:06:07.121Z,607.00
2023-02-22T18:07:07.167Z,607.00
2023-02-22T18:08:07.219Z,606.00
2023-02-22T18:09:07.296Z,608.00
2023-02-22T18:10:07.332Z,606.00
2023-02-22T19:04:10.523Z,614.00
2023-02-22T19:05:10.594Z,614.00
2023-02-22T19:06:10.645Z,616.00
2023-02-22T19:07:10.712Z,618.00
2023-02-22T19:08:10.799Z,620.00
2023-02-22T19:09:10.865Z,619.00
2023-02-22T19:10:10.925Z,622.00
2023-02-22T19:11:11.007Z,620.00
2023-02-22T19:12:11.042Z,620.00
2023-02-22T19:13:11.070Z,620.00